createdAt,value
2016-05-19T00:00:29.823Z,13.97
2016-05-19T00:01:29.997Z,13.9
2016-05-19T00:02:30.140Z,13.93
2016-05-19T00:03:30.143Z,13.95
2016-05-19T00:04:29.989Z,13.93
2016-05-19T00:05:49.336Z,13.87
2016-05-19T00:06:30.150Z,13.9
2016-05-19T00:07:30.138Z,13.93
2016-05-19T00:08:30.156Z,13.93
2016-05-19T00:09:30.159Z,13.93
2016-05-19T00:10:30.162Z,13.86
2016-05-19T00:11:30.133Z,13.95
2016-05-19T00:12:30.152Z,13.87
2016-05-19T00:13:30.139Z,13.96
2016-05-19T00:14:29.986Z,13.92
2016-05-19T00:15:49.347Z,13.95
2016-05-19T00:16:30.147Z,13.95
2016-05-19T00:17:30.150Z,13.89
2016-05-19T00:18:30.183Z,13.87
2016-05-19T00:19:30.171Z,13.93
2016-05-19T00:20:30.157Z,13.93
2016-05-19T00:21:30.176Z,13.92
2016-05-19T00:22:30.147Z,13.9
2016-05-19T00:23:43.352Z,13.99
2016-05-19T00:24:30.153Z,13.83
2016-05-19T00:25:30.155Z,13.83
2016-05-19T00:26:30.017Z,13.81
2016-05-19T00:27:30.160Z,13.83
2016-05-19T00:28:30.148Z,13.81
2016-05-19T00:29:30.026Z,13.81
2016-05-19T00:30:42.918Z,13.77
2016-05-19T00:31:29.859Z,13.71
2016-05-19T00:32:30.017Z,13.67
2016-05-19T00:33:30.020Z,13.59
2016-05-19T00:34:30.164Z,13.46
2016-05-19T00:35:30.182Z,13.47
2016-05-19T00:36:30.170Z,13.37
2016-05-19T00:37:30.156Z,13.31
2016-05-19T00:38:30.112Z,13.23
2016-05-19T00:39:30.209Z,13.18
2016-05-19T00:40:30.195Z,13.18
2016-05-19T00:41:30.167Z,13.2
2016-05-19T00:42:30.029Z,13.13
2016-05-19T00:43:30.188Z,13.2
2016-05-19T00:44:30.175Z,13.08
2016-05-19T00:45:30.178Z,13.04
2016-05-19T00:46:49.227Z,13
2016-05-19T00:47:30.183Z,13.01
2016-05-19T00:48:30.202Z,13.05
2016-05-19T00:49:30.172Z,12.98
2016-05-19T00:50:30.035Z,13
2016-05-19T00:51:30.178Z,13.01
2016-05-19T00:52:30.180Z,13
2016-05-19T00:53:30.058Z,12.94
2016-05-19T00:54:30.186Z,12.98
2016-05-19T00:55:30.174Z,12.82
2016-05-19T00:56:30.192Z,12.87
2016-05-19T00:57:30.179Z,12.91
2016-05-19T00:58:30.196Z,12.9
2016-05-19T00:59:30.185Z,12.95
2016-05-19T01:00:30.187Z,12.93
2016-05-19T01:01:30.173Z,12.9
2016-05-19T01:02:30.192Z,12.94
2016-05-19T01:03:30.195Z,12.87
2016-05-19T01:04:30.042Z,12.93
2016-05-19T01:05:30.185Z,12.91
2016-05-19T01:06:42.922Z,12.9
2016-05-19T01:07:30.190Z,12.86
2016-05-19T01:08:30.443Z,12.85
2016-05-19T01:09:30.195Z,12.83
2016-05-19T01:10:30.183Z,12.85
2016-05-19T01:11:30.185Z,12.75
2016-05-19T01:12:30.031Z,12.83
2016-05-19T01:13:30.191Z,12.8
2016-05-19T01:14:30.194Z,12.83
2016-05-19T01:15:30.196Z,12.83
2016-05-19T01:16:30.199Z,12.8
2016-05-19T01:17:49.233Z,12.82
2016-05-19T01:18:30.189Z,12.87
2016-05-19T01:19:30.207Z,12.79
2016-05-19T01:20:30.193Z,12.91
2016-05-19T01:21:30.213Z,12.85
2016-05-19T01:22:30.184Z,12.98
2016-05-19T01:23:30.514Z,13
2016-05-19T01:24:30.188Z,13.01
2016-05-19T01:25:30.035Z,13
2016-05-19T01:26:30.054Z,13
2016-05-19T01:27:30.197Z,13
2016-05-19T01:28:49.402Z,13.03
2016-05-19T01:29:42.937Z,13.01
2016-05-19T01:30:30.205Z,13.05
2016-05-19T01:31:55.864Z,13
2016-05-19T01:32:30.054Z,13.09
2016-05-19T01:33:30.041Z,13.04
2016-05-19T01:34:30.200Z,13.05
2016-05-19T01:35:30.187Z,13.01
2016-05-19T01:36:30.206Z,12.98
2016-05-19T01:37:30.208Z,13
2016-05-19T01:38:30.493Z,13.03
2016-05-19T01:39:30.213Z,13.03
2016-05-19T01:40:42.966Z,13.03
2016-05-19T01:41:30.047Z,13
2016-05-19T01:42:30.222Z,13.04
2016-05-19T01:43:30.209Z,12.98
2016-05-19T01:44:30.071Z,12.97
2016-05-19T01:45:30.214Z,12.93
2016-05-19T01:46:30.076Z,13.03
2016-05-19T01:47:30.219Z,13.03
2016-05-19T01:48:30.206Z,13.01
2016-05-19T01:49:30.209Z,13.01
2016-05-19T01:50:49.275Z,13.03
2016-05-19T01:51:30.214Z,13
2016-05-19T01:52:30.217Z,12.97
2016-05-19T01:53:30.502Z,13.01
2016-05-19T01:54:30.051Z,13
2016-05-19T01:55:30.210Z,13.03
2016-05-19T01:56:30.213Z,12.95
2016-05-19T01:57:30.199Z,12.95
2016-05-19T01:58:30.218Z,12.95
2016-05-19T01:59:30.190Z,13.03
2016-05-19T02:00:30.207Z,12.97
2016-05-19T02:01:42.945Z,12.97
2016-05-19T02:02:30.197Z,13.08
2016-05-19T02:03:30.215Z,13.01
2016-05-19T02:04:30.235Z,12.98
2016-05-19T02:05:30.049Z,13.01
2016-05-19T02:06:30.286Z,13
2016-05-19T02:07:30.226Z,13.01
2016-05-19T02:08:30.229Z,13.04
2016-05-19T02:09:30.201Z,12.98
2016-05-19T02:10:30.204Z,13
2016-05-19T02:11:30.206Z,13.11
2016-05-19T02:12:30.209Z,13.01
2016-05-19T02:13:30.196Z,13.01
2016-05-19T02:14:30.214Z,13.01
2016-05-19T02:15:30.201Z,13.04
2016-05-19T02:16:30.219Z,13.05
2016-05-19T02:17:30.206Z,13.16
2016-05-19T02:18:49.444Z,13.05
2016-05-19T02:19:30.227Z,13.16
2016-05-19T02:20:30.199Z,13.18
2016-05-19T02:21:49.436Z,13.09
2016-05-19T02:22:30.204Z,13.11
2016-05-19T02:23:30.379Z,13.25
2016-05-19T02:24:30.233Z,13.13
2016-05-19T02:25:30.205Z,13.18
2016-05-19T02:26:30.222Z,13.25
2016-05-19T02:27:30.210Z,13.15
2016-05-19T02:28:30.228Z,13.2
2016-05-19T02:29:30.060Z,13.25
2016-05-19T02:30:30.218Z,13.19
2016-05-19T02:31:49.268Z,13.15
2016-05-19T02:32:30.207Z,13.11
2016-05-19T02:33:30.070Z,13.19
2016-05-19T02:34:30.057Z,13.18
2016-05-19T02:35:30.232Z,13.13
2016-05-19T02:36:30.234Z,13.22
2016-05-19T02:37:30.221Z,13.18
2016-05-19T02:38:42.990Z,13.16
2016-05-19T02:39:30.226Z,13.16
2016-05-19T02:40:30.273Z,13.27
2016-05-19T02:41:30.303Z,13.15
2016-05-19T02:42:30.334Z,13.16
2016-05-19T02:43:30.365Z,13.18
2016-05-19T02:44:30.427Z,13.03
2016-05-19T02:45:30.297Z,12.98
2016-05-19T02:46:30.457Z,13.03
2016-05-19T02:47:30.490Z,12.91
2016-05-19T02:48:30.524Z,12.95
2016-05-19T02:49:30.527Z,12.91
2016-05-19T02:50:30.522Z,12.9
2016-05-19T02:51:43.297Z,12.93
2016-05-19T02:52:30.556Z,12.87
2016-05-19T02:53:30.719Z,12.98
2016-05-19T02:54:30.415Z,12.98
2016-05-19T02:55:30.546Z,13.01
2016-05-19T02:56:30.551Z,13.01
2016-05-19T02:57:30.571Z,13
2016-05-19T02:58:30.576Z,13.03
2016-05-19T02:59:30.612Z,12.97
2016-05-19T03:00:30.397Z,12.97
2016-05-19T03:01:30.557Z,13.01
2016-05-19T03:02:49.778Z,12.93
2016-05-19T03:03:30.595Z,12.98
2016-05-19T03:04:30.567Z,12.93
2016-05-19T03:05:30.571Z,12.87
2016-05-19T03:06:30.574Z,12.87
2016-05-19T03:07:30.576Z,12.82
2016-05-19T03:08:30.423Z,12.86
2016-05-19T03:09:30.566Z,12.83
2016-05-19T03:10:30.585Z,12.82
2016-05-19T03:11:30.588Z,12.8
2016-05-19T03:12:30.575Z,12.78
2016-05-19T03:13:49.625Z,12.85
2016-05-19T03:14:30.581Z,12.79
2016-05-19T03:15:30.567Z,12.86
2016-05-19T03:16:30.586Z,12.79
2016-05-19T03:17:30.589Z,12.79
2016-05-19T03:18:30.575Z,12.82
2016-05-19T03:19:30.578Z,12.82
2016-05-19T03:20:30.581Z,12.93
2016-05-19T03:21:30.599Z,12.91
2016-05-19T03:22:30.571Z,12.98
2016-05-19T03:23:30.588Z,12.83
2016-05-19T03:24:30.591Z,12.95
2016-05-19T03:25:30.594Z,12.98
2016-05-19T03:26:30.425Z,12.86
2016-05-19T03:27:30.599Z,12.91
2016-05-19T03:28:30.431Z,12.97
2016-05-19T03:29:30.605Z,12.82
2016-05-19T03:30:30.576Z,12.9
2016-05-19T03:31:30.579Z,12.78
2016-05-19T03:32:30.582Z,12.78
2016-05-19T03:33:30.585Z,12.68
2016-05-19T03:34:30.604Z,12.76
2016-05-19T03:35:30.606Z,12.68
2016-05-19T03:36:30.609Z,12.73
2016-05-19T03:37:30.564Z,12.67
2016-05-19T03:38:30.441Z,12.78
2016-05-19T03:39:30.601Z,12.78
2016-05-19T03:40:30.588Z,12.75
2016-05-19T03:41:30.606Z,12.78
2016-05-19T03:42:30.593Z,12.8
2016-05-19T03:43:30.580Z,12.78
2016-05-19T03:44:30.427Z,12.78
2016-05-19T03:45:30.601Z,12.79
2016-05-19T03:46:30.619Z,12.76
2016-05-19T03:47:30.607Z,12.65
2016-05-19T03:48:49.797Z,12.64
2016-05-19T03:49:30.597Z,12.6
2016-05-19T03:50:30.583Z,12.58
2016-05-19T03:51:30.602Z,12.58
2016-05-19T03:52:30.605Z,12.65
2016-05-19T03:53:30.592Z,12.58
2016-05-19T03:54:30.594Z,12.55
2016-05-19T03:55:36.879Z,12.61
2016-05-19T03:56:30.599Z,12.61
2016-05-19T03:57:30.602Z,12.57
2016-05-19T03:58:30.590Z,12.55
2016-05-19T03:59:30.592Z,12.46
2016-05-19T04:00:30.595Z,12.46
2016-05-19T04:01:30.456Z,12.35
2016-05-19T04:02:30.443Z,12.22
2016-05-19T04:03:30.603Z,12.39
2016-05-19T04:04:30.590Z,12.2
2016-05-19T04:05:49.795Z,12.22
2016-05-19T04:06:30.439Z,12.22
2016-05-19T04:07:30.598Z,12.28
2016-05-19T04:08:30.960Z,12.39
2016-05-19T04:09:30.604Z,12.4
2016-05-19T04:10:30.606Z,12.4
2016-05-19T04:11:43.328Z,12.47
2016-05-19T04:12:30.440Z,12.47
2016-05-19T04:13:30.583Z,12.45
2016-05-19T04:14:30.444Z,12.5
2016-05-19T04:15:30.603Z,12.6
2016-05-19T04:16:30.591Z,12.64
2016-05-19T04:17:30.594Z,12.7
2016-05-19T04:18:30.580Z,12.64
2016-05-19T04:19:30.599Z,12.75
2016-05-19T04:20:30.616Z,12.68
2016-05-19T04:21:30.588Z,12.73
2016-05-19T04:22:30.607Z,12.65
2016-05-19T04:23:30.485Z,12.82
2016-05-19T04:24:30.457Z,12.78
2016-05-19T04:25:30.443Z,12.8
2016-05-19T04:26:30.446Z,12.78
2016-05-19T04:27:30.605Z,12.78
2016-05-19T04:28:30.452Z,12.82
2016-05-19T04:29:30.595Z,12.78
2016-05-19T04:30:30.598Z,12.83
2016-05-19T04:31:30.616Z,12.79
2016-05-19T04:32:43.337Z,12.8
2016-05-19T04:33:30.606Z,12.78
2016-05-19T04:34:30.436Z,12.8
2016-05-19T04:35:30.626Z,12.8
2016-05-19T04:36:30.614Z,12.85
2016-05-19T04:37:30.616Z,12.79
2016-05-19T04:38:30.995Z,12.83
2016-05-19T04:39:30.747Z,12.82
2016-05-19T04:40:30.624Z,12.82
2016-05-19T04:41:30.612Z,12.83
2016-05-19T04:42:30.630Z,12.85
2016-05-19T04:43:30.617Z,12.85
2016-05-19T04:44:30.603Z,12.8
2016-05-19T04:45:43.341Z,12.83
2016-05-19T04:46:30.452Z,12.9
2016-05-19T04:47:30.487Z,12.9
2016-05-19T04:48:30.630Z,12.93
2016-05-19T04:49:30.617Z,12.95
2016-05-19T04:50:30.605Z,12.97
2016-05-19T04:51:43.341Z,12.93
2016-05-19T04:52:30.625Z,12.91
2016-05-19T04:53:56.299Z,12.97
2016-05-19T04:54:30.616Z,12.97
2016-05-19T04:55:30.618Z,12.98
2016-05-19T04:56:30.635Z,12.95
2016-05-19T04:57:30.624Z,13.01
2016-05-19T04:58:30.610Z,13.05
2016-05-19T04:59:30.613Z,13
2016-05-19T05:00:30.616Z,12.98
2016-05-19T05:01:30.477Z,13.04
2016-05-19T05:02:30.465Z,13
2016-05-19T05:03:30.623Z,13.03
2016-05-19T05:04:43.204Z,13.15
2016-05-19T05:05:30.442Z,13.08
2016-05-19T05:06:30.616Z,13.08
2016-05-19T05:07:30.603Z,13.04
2016-05-19T05:08:31.215Z,13.04
2016-05-19T05:09:30.624Z,13.05
2016-05-19T05:10:30.470Z,13.18
2016-05-19T05:11:30.614Z,13.09
2016-05-19T05:12:30.476Z,13.25
2016-05-19T05:13:30.479Z,13.23
2016-05-19T05:14:30.466Z,13.18
2016-05-19T05:15:30.453Z,13.2
2016-05-19T05:16:43.378Z,13.27
2016-05-19T05:17:30.630Z,13.16
2016-05-19T05:18:30.633Z,13.2
2016-05-19T05:19:30.620Z,13.25
2016-05-19T05:20:43.388Z,13.3
2016-05-19T05:21:30.719Z,13.35
2016-05-19T05:22:30.612Z,13.28
2016-05-19T05:23:31.005Z,13.35
2016-05-19T05:24:30.634Z,13.46
2016-05-19T05:25:30.636Z,13.44
2016-05-19T05:26:30.638Z,13.39
2016-05-19T05:27:30.626Z,13.37
2016-05-19T05:28:30.644Z,13.28
2016-05-19T05:29:30.647Z,13.3
2016-05-19T05:30:30.634Z,13.28
2016-05-19T05:31:30.637Z,13.23
2016-05-19T05:32:30.640Z,13.16
2016-05-19T05:33:43.376Z,13.28
2016-05-19T05:34:30.645Z,13.28
2016-05-19T05:35:30.491Z,13.35
2016-05-19T05:36:30.478Z,13.31
2016-05-19T05:37:30.637Z,13.33
2016-05-19T05:38:30.515Z,13.31
2016-05-19T05:39:30.643Z,13.27
2016-05-19T05:40:30.645Z,13.22
2016-05-19T05:41:30.648Z,13.19
2016-05-19T05:42:43.385Z,13.16
2016-05-19T05:43:30.654Z,13.16
2016-05-19T05:44:30.656Z,13.15
2016-05-19T05:45:30.500Z,13.2
2016-05-19T05:46:30.645Z,13.19
2016-05-19T05:47:30.633Z,13.25
2016-05-19T05:48:30.635Z,13.18
2016-05-19T05:49:30.635Z,13.25
2016-05-19T05:50:30.654Z,13.27
2016-05-19T05:51:30.656Z,13.3
2016-05-19T05:52:43.225Z,13.42
2016-05-19T05:53:31.008Z,13.47
2016-05-19T05:54:30.508Z,13.37
2016-05-19T05:55:30.495Z,13.44
2016-05-19T05:56:30.670Z,13.52
2016-05-19T05:57:30.657Z,13.57
2016-05-19T05:58:30.675Z,13.67
2016-05-19T05:59:30.474Z,13.7
2016-05-19T06:00:30.477Z,13.77
2016-05-19T06:01:43.374Z,13.79
2016-05-19T06:02:30.514Z,13.81
2016-05-19T06:03:30.658Z,13.86
2016-05-19T06:04:30.660Z,13.9
2016-05-19T06:05:30.647Z,13.86
2016-05-19T06:06:30.650Z,13.86
2016-05-19T06:07:30.652Z,13.86
2016-05-19T06:08:30.405Z,13.81
2016-05-19T06:09:30.689Z,13.87
2016-05-19T06:10:30.660Z,13.87
2016-05-19T06:11:30.663Z,13.83
2016-05-19T06:12:30.665Z,13.81
2016-05-19T06:13:30.668Z,13.77
2016-05-19T06:14:30.671Z,13.72
2016-05-19T06:15:30.674Z,13.62
2016-05-19T06:16:30.662Z,13.53
2016-05-19T06:17:30.695Z,13.5
2016-05-19T06:18:30.682Z,13.54
2016-05-19T06:19:30.669Z,13.46
2016-05-19T06:20:43.439Z,13.52
2016-05-19T06:21:30.658Z,13.46
2016-05-19T06:22:34.774Z,13.47
2016-05-19T06:23:30.539Z,13.52
2016-05-19T06:24:30.683Z,13.47
2016-05-19T06:25:30.686Z,13.5
2016-05-19T06:26:30.673Z,13.54
2016-05-19T06:27:30.519Z,13.5
2016-05-19T06:28:43.430Z,13.39
2016-05-19T06:29:30.696Z,13.49
2016-05-19T06:30:30.527Z,13.47
2016-05-19T06:31:30.529Z,13.49
2016-05-19T06:32:30.533Z,13.44
2016-05-19T06:33:30.676Z,13.49
2016-05-19T06:34:30.694Z,13.44
2016-05-19T06:35:30.682Z,13.47
2016-05-19T06:36:30.543Z,13.44
2016-05-19T06:37:49.907Z,13.57
2016-05-19T06:38:30.673Z,13.57
2016-05-19T06:39:30.692Z,13.59
2016-05-19T06:40:30.538Z,13.54
2016-05-19T06:41:30.385Z,13.54
2016-05-19T06:42:30.715Z,13.52
2016-05-19T06:43:30.703Z,13.57
2016-05-19T06:44:30.377Z,13.59
2016-05-19T06:45:30.537Z,13.59
2016-05-19T06:46:30.711Z,13.65
2016-05-19T06:47:30.698Z,13.62
2016-05-19T06:48:30.701Z,13.68
2016-05-19T06:49:30.703Z,13.78
2016-05-19T06:50:30.705Z,13.83
2016-05-19T06:51:36.977Z,13.96
2016-05-19T06:52:30.711Z,13.93
2016-05-19T06:53:31.151Z,13.97
2016-05-19T06:54:30.701Z,14.03
2016-05-19T06:55:30.391Z,14.05
2016-05-19T06:56:43.475Z,14.12
2016-05-19T06:57:30.569Z,14.12
2016-05-19T06:58:30.697Z,14.15
2016-05-19T06:59:30.713Z,14.23
2016-05-19T07:00:30.577Z,14.26
2016-05-19T07:01:30.704Z,14.35
2016-05-19T07:02:30.722Z,14.4
2016-05-19T07:03:30.709Z,14.4
2016-05-19T07:04:49.949Z,14.51
2016-05-19T07:05:33.905Z,14.41
2016-05-19T07:06:33.892Z,14.55
2016-05-19T07:07:33.910Z,14.59
2016-05-19T07:08:33.866Z,14.53
2016-05-19T07:09:33.915Z,14.48
2016-05-19T07:10:33.903Z,14.5
2016-05-19T07:11:46.656Z,14.41
2016-05-19T07:12:33.923Z,14.43
2016-05-19T07:13:33.751Z,14.41
2016-05-19T07:14:33.926Z,14.4
2016-05-19T07:15:33.742Z,14.33
2016-05-19T07:16:33.931Z,14.3
2016-05-19T07:17:33.762Z,14.33
2016-05-19T07:18:33.922Z,14.22
2016-05-19T07:19:46.645Z,14.15
2016-05-19T07:20:33.942Z,14.18
2016-05-19T07:21:33.914Z,14.07
2016-05-19T07:22:33.933Z,14.23
2016-05-19T07:23:34.200Z,14.17
2016-05-19T07:24:33.938Z,14.17
2016-05-19T07:25:33.972Z,14.11
2016-05-19T07:26:46.664Z,14.04
2016-05-19T07:27:33.836Z,14.03
2016-05-19T07:28:33.933Z,13.96
2016-05-19T07:29:33.952Z,14.08
2016-05-19T07:30:33.830Z,14.11
2016-05-19T07:31:33.785Z,14.08
2016-05-19T07:32:33.960Z,14.04
2016-05-19T07:33:33.774Z,14.12
2016-05-19T07:34:33.980Z,14.17
2016-05-19T07:35:33.952Z,14.2
2016-05-19T07:36:46.676Z,14.17
2016-05-19T07:37:33.801Z,14.35
2016-05-19T07:38:33.991Z,14.36
2016-05-19T07:39:33.946Z,14.33
2016-05-19T07:40:33.965Z,14.44
2016-05-19T07:41:33.937Z,14.41
2016-05-19T07:42:46.692Z,14.6
2016-05-19T07:43:33.942Z,14.5
2016-05-19T07:44:33.976Z,14.6
2016-05-19T07:45:33.806Z,14.63
2016-05-19T07:46:33.966Z,14.62
2016-05-19T07:47:33.984Z,14.65
2016-05-19T07:48:33.955Z,14.58
2016-05-19T07:49:33.959Z,14.63
2016-05-19T07:50:33.962Z,14.66
2016-05-19T07:51:33.979Z,14.68
2016-05-19T07:52:33.982Z,14.69
2016-05-19T07:53:34.406Z,14.81
2016-05-19T07:54:46.708Z,14.86
2016-05-19T07:55:33.989Z,14.88
2016-05-19T07:56:33.977Z,14.92
2016-05-19T07:57:33.980Z,14.89
2016-05-19T07:58:34.014Z,14.99
2016-05-19T07:59:34.000Z,15
2016-05-19T08:00:33.847Z,15
2016-05-19T08:01:33.991Z,14.96
2016-05-19T08:02:33.868Z,15
2016-05-19T08:03:34.011Z,14.96
2016-05-19T08:04:33.998Z,14.94
2016-05-19T08:05:34.016Z,15
2016-05-19T08:06:46.725Z,14.91
2016-05-19T08:07:34.022Z,14.89
2016-05-19T08:08:34.197Z,14.86
2016-05-19T08:09:34.013Z,14.81
2016-05-19T08:10:33.999Z,14.69
2016-05-19T08:11:34.018Z,14.66
2016-05-19T08:12:34.020Z,14.59
2016-05-19T08:13:34.007Z,14.68
2016-05-19T08:14:34.010Z,14.59
2016-05-19T08:15:46.765Z,14.66
2016-05-19T08:16:34.015Z,14.6
2016-05-19T08:17:34.034Z,14.63
2016-05-19T08:18:34.021Z,14.84
2016-05-19T08:19:34.039Z,14.89
2016-05-19T08:20:34.010Z,14.96
2016-05-19T08:21:34.044Z,14.92
2016-05-19T08:22:34.031Z,14.91
2016-05-19T08:23:34.065Z,14.94
2016-05-19T08:24:34.036Z,14.92
2016-05-19T08:25:34.039Z,15.02
2016-05-19T08:26:34.025Z,15.09
2016-05-19T08:27:34.060Z,15.18
2016-05-19T08:28:33.735Z,15.28
2016-05-19T08:29:46.772Z,15.36
2016-05-19T08:30:34.053Z,15.39
2016-05-19T08:31:34.071Z,15.39
2016-05-19T08:32:33.902Z,15.25
2016-05-19T08:33:34.045Z,15.21
2016-05-19T08:34:34.047Z,15.28
2016-05-19T08:35:33.755Z,15.35
2016-05-19T08:36:34.053Z,15.22
2016-05-19T08:37:34.072Z,15.19
2016-05-19T08:38:34.058Z,15.19
2016-05-19T08:39:33.905Z,15.31
2016-05-19T08:40:46.660Z,15.24
2016-05-19T08:41:34.082Z,15.28
2016-05-19T08:42:34.085Z,15.33
2016-05-19T08:43:34.072Z,15.33
2016-05-19T08:44:34.075Z,15.36
2016-05-19T08:45:34.077Z,15.31
2016-05-19T08:46:34.065Z,15.42
2016-05-19T08:47:34.098Z,15.44
2016-05-19T08:48:33.945Z,15.58
2016-05-19T08:49:34.087Z,15.62
2016-05-19T08:50:34.106Z,15.86
2016-05-19T08:51:34.093Z,15.82
2016-05-19T08:52:34.128Z,15.97
2016-05-19T08:53:34.614Z,16.05
2016-05-19T08:54:34.008Z,16.1
2016-05-19T08:55:33.870Z,16.15
2016-05-19T08:56:34.232Z,16.09
2016-05-19T08:57:34.156Z,15.98
2016-05-19T08:58:34.144Z,16.12
2016-05-19T08:59:33.989Z,16.09
2016-05-19T09:00:34.149Z,15.94
2016-05-19T09:01:34.152Z,15.9
2016-05-19T09:02:34.155Z,15.94
2016-05-19T09:03:34.173Z,15.94
2016-05-19T09:04:34.160Z,15.91
2016-05-19T09:05:34.178Z,15.82
2016-05-19T09:06:34.181Z,15.86
2016-05-19T09:07:34.199Z,15.79
2016-05-19T09:08:34.045Z,15.88
2016-05-19T09:09:46.769Z,15.97
2016-05-19T09:10:34.191Z,16.01
2016-05-19T09:11:34.194Z,16.02
2016-05-19T09:12:34.040Z,16.04
2016-05-19T09:13:34.185Z,16.13
2016-05-19T09:14:34.187Z,16.05
2016-05-19T09:15:46.786Z,16.24
2016-05-19T09:16:34.208Z,16.28
2016-05-19T09:17:34.070Z,16.28
2016-05-19T09:18:34.213Z,16.31
2016-05-19T09:19:34.215Z,16.31
2016-05-19T09:20:34.204Z,16.28
2016-05-19T09:21:34.221Z,16.15
2016-05-19T09:22:34.255Z,16.09
2016-05-19T09:23:34.304Z,16.01
2016-05-19T09:24:34.307Z,16.05
2016-05-19T09:25:34.264Z,16.01
2016-05-19T09:26:34.078Z,16.02
2016-05-19T09:27:34.253Z,16.08
2016-05-19T09:28:34.239Z,16.09
2016-05-19T09:29:34.242Z,16.29
2016-05-19T09:30:34.105Z,16.46
2016-05-19T09:31:34.248Z,16.53
2016-05-19T09:32:34.267Z,16.74
2016-05-19T09:33:34.253Z,16.76
2016-05-19T09:34:34.256Z,16.75
2016-05-19T09:35:34.290Z,16.75
2016-05-19T09:36:34.293Z,16.83
2016-05-19T09:37:46.861Z,16.64
2016-05-19T09:38:34.111Z,16.51
2016-05-19T09:39:34.130Z,16.58
2016-05-19T09:40:34.288Z,16.61
2016-05-19T09:41:34.291Z,16.64
2016-05-19T09:42:34.137Z,16.66
2016-05-19T09:43:34.296Z,16.69
2016-05-19T09:44:34.299Z,16.68
2016-05-19T09:45:34.317Z,16.71
2016-05-19T09:46:47.323Z,16.66
2016-05-19T09:47:34.338Z,16.6
2016-05-19T09:48:34.294Z,16.64
2016-05-19T09:49:34.328Z,16.66
2016-05-19T09:50:34.315Z,16.74
2016-05-19T09:51:34.318Z,16.75
2016-05-19T09:52:34.351Z,16.86
2016-05-19T09:53:34.495Z,16.89
2016-05-19T09:54:34.326Z,16.75
2016-05-19T09:55:34.328Z,16.76
2016-05-19T09:56:34.175Z,16.66
2016-05-19T09:57:34.365Z,16.57
2016-05-19T09:58:34.352Z,16.35
2016-05-19T09:59:34.386Z,16.26
2016-05-19T10:00:34.358Z,16.23
2016-05-19T10:01:34.188Z,16.08
2016-05-19T10:02:34.222Z,15.97
2016-05-19T10:03:34.381Z,15.83
2016-05-19T10:04:47.105Z,15.75
2016-05-19T10:05:34.214Z,15.79
2016-05-19T10:06:34.217Z,15.73
2016-05-19T10:07:34.392Z,15.64
2016-05-19T10:08:35.489Z,15.61
2016-05-19T10:09:47.119Z,15.54
2016-05-19T10:10:40.681Z,15.51
2016-05-19T10:11:34.105Z,15.59
2016-05-19T10:12:34.249Z,15.57
2016-05-19T10:13:34.455Z,15.54
2016-05-19T10:14:34.302Z,15.54
2016-05-19T10:15:34.398Z,15.65
2016-05-19T10:16:34.416Z,15.64
2016-05-19T10:17:47.124Z,15.58
2016-05-19T10:18:34.406Z,15.65
2016-05-19T10:19:34.409Z,15.77
2016-05-19T10:20:34.396Z,15.82
2016-05-19T10:21:34.415Z,15.88
2016-05-19T10:22:34.432Z,15.91
2016-05-19T10:23:34.420Z,16.09
2016-05-19T10:24:34.406Z,16.1
2016-05-19T10:25:34.440Z,16.17
2016-05-19T10:26:34.428Z,16.26
2016-05-19T10:27:34.446Z,16.28
2016-05-19T10:28:34.433Z,16.28
2016-05-19T10:29:34.436Z,16.31
2016-05-19T10:30:34.439Z,16.49
2016-05-19T10:31:47.194Z,16.66
2016-05-19T10:32:34.459Z,16.76
2016-05-19T10:33:34.447Z,16.71
2016-05-19T10:34:34.465Z,16.69
2016-05-19T10:35:34.483Z,16.58
2016-05-19T10:36:34.455Z,16.5
2016-05-19T10:37:34.457Z,16.33
2016-05-19T10:38:34.163Z,16.53
2016-05-19T10:39:34.463Z,16.66
2016-05-19T10:40:34.466Z,16.78
2016-05-19T10:41:34.483Z,16.79
2016-05-19T10:42:34.471Z,16.83
2016-05-19T10:43:34.489Z,16.83
2016-05-19T10:44:34.491Z,16.89
2016-05-19T10:45:34.322Z,17.06
2016-05-19T10:46:34.482Z,16.97
2016-05-19T10:47:34.516Z,16.9
2016-05-19T10:48:34.487Z,16.93
2016-05-19T10:49:34.505Z,16.97
2016-05-19T10:50:34.367Z,16.97
2016-05-19T10:51:47.091Z,16.96
2016-05-19T10:52:34.529Z,16.96
2016-05-19T10:53:34.626Z,16.99
2016-05-19T10:54:34.518Z,17.06
2016-05-19T10:55:34.365Z,16.96
2016-05-19T10:56:34.368Z,16.96
2016-05-19T10:57:34.370Z,16.89
2016-05-19T10:58:34.388Z,17.05
2016-05-19T10:59:34.532Z,16.94
2016-05-19T11:00:34.535Z,16.93
2016-05-19T11:01:47.275Z,17.02
2016-05-19T11:02:34.446Z,17.15
2016-05-19T11:03:34.636Z,17.31
2016-05-19T11:04:34.561Z,17.22
2016-05-19T11:05:34.563Z,17.2
2016-05-19T11:06:34.566Z,17.01
2016-05-19T11:07:34.584Z,16.94
2016-05-19T11:08:34.822Z,16.91
2016-05-19T11:09:34.434Z,16.86
2016-05-19T11:10:34.577Z,16.84
2016-05-19T11:11:47.160Z,16.81
2016-05-19T11:12:34.441Z,16.81
2016-05-19T11:13:34.586Z,16.84
2016-05-19T11:14:34.588Z,16.86
2016-05-19T11:15:34.450Z,16.83
2016-05-19T11:16:34.608Z,16.81
2016-05-19T11:17:34.611Z,16.84
2016-05-19T11:18:35.379Z,16.84
2016-05-19T11:19:34.445Z,16.71
2016-05-19T11:20:34.651Z,16.71
2016-05-19T11:21:34.607Z,16.64
2016-05-19T11:22:34.609Z,16.53
2016-05-19T11:23:36.440Z,16.51
2016-05-19T11:24:34.630Z,16.53
2016-05-19T11:25:34.633Z,16.38
2016-05-19T11:26:34.651Z,16.41
2016-05-19T11:27:34.638Z,16.47
2016-05-19T11:28:36.673Z,16.38
2016-05-19T11:29:34.660Z,16.39
2016-05-19T11:30:34.646Z,16.39
2016-05-19T11:31:47.433Z,16.38
2016-05-19T11:32:34.651Z,16.28
2016-05-19T11:33:34.654Z,16.32
2016-05-19T11:34:34.813Z,16.43
2016-05-19T11:35:34.503Z,16.47
2016-05-19T11:36:34.678Z,16.51
2016-05-19T11:37:34.681Z,16.74
2016-05-19T11:38:35.574Z,16.74
2016-05-19T11:39:35.077Z,16.76
2016-05-19T11:40:34.688Z,16.69
2016-05-19T11:41:34.691Z,16.76
2016-05-19T11:42:34.679Z,16.83
2016-05-19T11:43:34.681Z,16.79
2016-05-19T11:44:34.683Z,16.87
2016-05-19T11:45:47.424Z,16.86
2016-05-19T11:46:34.689Z,16.75
2016-05-19T11:47:34.574Z,16.89
2016-05-19T11:48:34.772Z,16.96
2016-05-19T11:49:34.815Z,16.96
2016-05-19T11:50:34.875Z,16.99
2016-05-19T11:51:34.808Z,17.12
2016-05-19T11:52:34.781Z,17.16
2016-05-19T11:53:34.938Z,17.16
2016-05-19T11:54:35.127Z,17.2
2016-05-19T11:55:34.832Z,17.24
2016-05-19T11:56:35.005Z,17.42
2016-05-19T11:57:35.014Z,17.38
2016-05-19T11:58:34.881Z,17.68
2016-05-19T11:59:35.030Z,17.7
2016-05-19T12:00:34.883Z,17.82
2016-05-19T12:01:34.875Z,17.89
2016-05-19T12:02:35.036Z,17.89
2016-05-19T12:03:35.056Z,18.16
2016-05-19T12:04:35.076Z,18.33
2016-05-19T12:05:35.065Z,18.38
2016-05-19T12:06:35.070Z,18.49
2016-05-19T12:07:35.089Z,18.37
2016-05-19T12:08:47.858Z,18.45
2016-05-19T12:09:35.096Z,18.28
2016-05-19T12:10:35.099Z,18.26
2016-05-19T12:11:35.337Z,18.31
2016-05-19T12:12:34.949Z,18.26
2016-05-19T12:13:35.124Z,18.41
2016-05-19T12:14:35.174Z,18.55
2016-05-19T12:15:35.177Z,18.62
2016-05-19T12:16:35.119Z,18.65
2016-05-19T12:17:54.327Z,18.44
2016-05-19T12:18:35.124Z,18.31
2016-05-19T12:19:35.127Z,18.37
2016-05-19T12:20:34.988Z,18.55
2016-05-19T12:21:35.131Z,18.47
2016-05-19T12:22:35.149Z,18.41
2016-05-19T12:23:35.152Z,18.37
2016-05-19T12:24:35.358Z,18.49
2016-05-19T12:25:35.173Z,18.23
2016-05-19T12:26:35.176Z,18.04
2016-05-19T12:27:35.163Z,18.01
2016-05-19T12:28:35.182Z,18.13
2016-05-19T12:29:35.168Z,18.04
2016-05-19T12:30:35.187Z,17.82
2016-05-19T12:31:35.049Z,17.64
2016-05-19T12:32:35.209Z,17.51
2016-05-19T12:33:35.195Z,17.51
2016-05-19T12:34:35.229Z,17.51
2016-05-19T12:35:35.059Z,17.7
2016-05-19T12:36:35.062Z,17.74
2016-05-19T12:37:35.050Z,17.85
2016-05-19T12:38:35.271Z,17.8
2016-05-19T12:39:35.430Z,17.9
2016-05-19T12:40:35.230Z,18.04
2016-05-19T12:41:47.983Z,18.03
2016-05-19T12:42:35.236Z,18.08
2016-05-19T12:43:35.238Z,18.07
2016-05-19T12:44:35.241Z,17.97
2016-05-19T12:45:35.243Z,17.89
2016-05-19T12:46:35.261Z,17.94
2016-05-19T12:47:35.249Z,18
2016-05-19T12:48:35.251Z,17.78
2016-05-19T12:49:48.004Z,17.9
2016-05-19T12:50:35.272Z,17.79
2016-05-19T12:51:35.260Z,17.72
2016-05-19T12:52:34.965Z,17.56
2016-05-19T12:53:35.280Z,17.57
2016-05-19T12:54:35.439Z,17.6
2016-05-19T12:55:35.113Z,17.82
2016-05-19T12:56:35.288Z,18.07